Ashville, OH

9:58 AM EDT on September 21, 2019 (GMT -0400)
Terrier City | | Change Station

Elev 623 ft 39.72 °N, 82.95 °W | Updated 25 seconds ago

Rain
Rain
70.2 °F
Feels Like 70.2 °F
N
3.1
Wind Variable Wind from West
Gusts 4.5 mph

Today
High -- | Low -- °F
--% Chance of Precip.
Yesterday
High -- | Low -- °F
Precip. -- in
Pressure 30.26 in
Visibility 10.0 miles
Clouds Mostly Cloudy 3900 ft
Overcast 4900 ft
Dew Point 68 °F
Humidity 93%
Rainfall 0.01 in
Snow Depth Not available.
7:18 AM 7:30 PM
Waning Gibbous, 56% visible
METAR KLCK 211355Z AUTO 25008KT 10SM BKN039 OVC049 22/19 A3026 RMK AO2 T02180189
Pressure 30.26 in
Visibility 10.0 miles
Clouds Mostly Cloudy 3900 ft
Overcast 4900 ft
Dew Point 68 °F
Humidity 93%
Rainfall 0.01 in
Snow Depth Not available.
7:18 AM 7:30 PM
Waning Gibbous, 56% visible
METAR KLCK 211355Z AUTO 25008KT 10SM BKN039 OVC049 22/19 A3026 RMK AO2 T02180189

Get Severe Weather Alerts

Thanks for signing up!

Be on the lookout for a verification email in your inbox.

You'll start receiving the daily forecast at 6 AM.

×

10-Day Weather Forecast

Almanac

Astronomy

Sep. 21, 2019 Rise Set
Actual Time
Civil Twilight
Nautical Twilight
Astronomical Twilight
Moon
Length of Visible Light
Length of Day
Tomorrow will be .
, % of the Moon is Illuminated

Today's Extremes

State Highs State Lows

Community

WunderPhotos

Category 6

Welcome to Category 6. This is the collective home for Weather Underground's featured writeups by Dr. Jeff Masters (right), Bob Henson (left), Chris Burt, and other regular contributors.

Nearby

Air Quality

  Air Quality AQ Index Pollutant
Not available.

Snow Depth

Station Depth Elevation

Earthquake Activity

City Distance Mag. Time & Date
Minimum magnitude displayed is 2.5.

Coastal Water Temperatures

Place Temperature

Stations

Nearby Weather Stations

Station Location Temp. Windchill Dew Point Humidity Wind Precip. Elev Updated Type
                   

Watches & Warnings

There are currently no watches in effect.